Time;durP1;ratioP1;P1;durP2;ratioP2;P2;SDS_P1;SDS_P2;PMS_P1;PMS_P2;Temp;Humidity;BMP_temperature;BMP_pressure;BME280_temperature;BME280_humidity;BME280_pressure;Samples;Min_cycle;Max_cycle;Signal;HPM_P1;HPM_P2
2021/07/06 00:00:58;;;;;;;1.70;0.70;;;16.00;99.90;;;;;;6059687;29;20267;-68
2021/07/06 00:04:00;;;;;;;1.70;0.60;;;16.00;99.90;;;;;;6076212;29;20286;-69
2021/07/06 00:07:03;;;;;;;1.03;0.67;;;15.90;99.90;;;;;;6058277;29;20200;-68
2021/07/06 00:10:08;;;;;;;2.17;0.70;;;15.90;99.90;;;;;;6057074;29;20231;-68
2021/07/06 00:13:11;;;;;;;0.97;0.67;;;15.90;99.90;;;;;;6057945;29;20208;-68
2021/07/06 00:16:14;;;;;;;1.00;0.90;;;15.90;99.90;;;;;;6058207;29;20280;-68
2021/07/06 00:19:16;;;;;;;1.63;0.57;;;15.90;99.90;;;;;;6056107;29;20296;-68
2021/07/06 00:22:18;;;;;;;0.90;0.67;;;15.90;99.90;;;;;;6056996;29;20204;-69
2021/07/06 00:25:20;;;;;;;0.93;0.70;;;15.80;99.90;;;;;;6056776;29;20208;-68
2021/07/06 00:28:23;;;;;;;0.60;0.60;;;15.80;99.90;;;;;;6056322;29;20658;-69
2021/07/06 00:31:26;;;;;;;1.23;0.70;;;15.80;99.90;;;;;;6057628;29;20237;-68
2021/07/06 00:34:28;;;;;;;1.30;0.73;;;15.70;99.90;;;;;;6057405;29;20207;-68
2021/07/06 00:37:30;;;;;;;1.50;0.67;;;15.60;99.90;;;;;;6064370;29;20218;-69
2021/07/06 00:40:32;;;;;;;1.20;0.77;;;15.60;99.90;;;;;;6053383;29;20221;-68
2021/07/06 00:43:37;;;;;;;1.47;1.03;;;15.60;99.90;;;;;;6056926;29;20331;-69
2021/07/06 00:46:39;;;;;;;0.57;0.57;;;15.50;99.90;;;;;;6056226;29;20277;-68
2021/07/06 00:49:41;;;;;;;0.60;0.60;;;15.50;99.90;;;;;;6056820;29;20225;-69
2021/07/06 00:52:44;;;;;;;0.73;0.60;;;15.50;99.90;;;;;;6056300;29;20291;-68
2021/07/06 00:55:49;;;;;;;1.10;0.60;;;15.50;99.90;;;;;;6057282;29;20216;-68
2021/07/06 00:58:51;;;;;;;1.10;0.57;;;15.60;99.90;;;;;;6056883;29;20184;-68
2021/07/06 01:02:01;;;;;;;2.50;0.70;;;15.50;99.90;;;;;;6080904;29;20214;-69
2021/07/06 01:05:06;;;;;;;1.10;0.70;;;15.60;99.90;;;;;;6056702;29;20200;-69
2021/07/06 01:08:09;;;;;;;1.03;0.60;;;15.70;99.90;;;;;;6057383;29;20668;-68
2021/07/06 01:11:16;;;;;;;0.93;0.70;;;15.70;99.90;;;;;;6055297;29;20205;-69
2021/07/06 01:14:19;;;;;;;0.70;0.60;;;15.70;99.90;;;;;;6056980;29;20205;-69
2021/07/06 01:17:26;;;;;;;0.90;0.60;;;15.70;99.90;;;;;;6056654;29;20193;-68
2021/07/06 01:20:30;;;;;;;0.77;0.50;;;15.70;99.90;;;;;;6056370;29;20213;-69
2021/07/06 01:23:32;;;;;;;0.80;0.77;;;15.70;99.90;;;;;;6055533;29;20222;-69
2021/07/06 01:26:35;;;;;;;0.70;0.60;;;15.50;99.90;;;;;;6055032;29;20280;-68
2021/07/06 01:29:37;;;;;;;0.73;0.60;;;15.50;99.90;;;;;;6056947;29;21119;-68
2021/07/06 01:32:40;;;;;;;0.80;0.77;;;15.40;99.90;;;;;;6070871;29;20202;-68
2021/07/06 01:35:43;;;;;;;2.07;0.60;;;15.40;99.90;;;;;;6060597;29;20233;-68
2021/07/06 01:38:46;;;;;;;1.40;0.70;;;15.30;99.90;;;;;;6056430;29;20254;-68
2021/07/06 01:41:48;;;;;;;0.70;0.60;;;15.20;99.90;;;;;;6055617;29;20217;-68
2021/07/06 01:45:06;;;;;;;0.70;0.70;;;15.20;99.90;;;;;;6039527;29;20345;-69
2021/07/06 01:48:09;;;;;;;1.27;0.63;;;15.20;99.90;;;;;;6054781;29;20208;-68
2021/07/06 01:51:11;;;;;;;1.00;0.63;;;15.20;99.90;;;;;;6070316;29;20292;-68
2021/07/06 01:54:15;;;;;;;0.53;0.50;;;15.20;99.90;;;;;;6056016;29;20193;-69
2021/07/06 01:57:17;;;;;;;0.93;0.70;;;15.20;99.90;;;;;;6055710;29;20589;-69
2021/07/06 02:00:22;;;;;;;0.70;0.70;;;15.20;99.90;;;;;;6055621;29;20562;-68
2021/07/06 02:03:25;;;;;;;1.10;0.70;;;15.20;99.90;;;;;;6057342;29;20193;-68
2021/07/06 02:06:27;;;;;;;0.63;0.63;;;15.20;99.90;;;;;;6055920;29;20201;-69
2021/07/06 02:09:29;;;;;;;0.80;0.80;;;15.20;99.90;;;;;;6055499;29;20197;-68
2021/07/06 02:12:31;;;;;;;0.73;0.73;;;15.10;99.90;;;;;;6053419;29;20574;-68
2021/07/06 02:15:34;;;;;;;0.50;0.50;;;15.10;99.90;;;;;;6054299;29;20193;-68
2021/07/06 02:18:36;;;;;;;1.67;0.73;;;15.10;99.90;;;;;;6055237;29;20245;-69
2021/07/06 02:21:39;;;;;;;2.07;0.80;;;15.00;99.90;;;;;;6055457;29;20213;-68
2021/07/06 02:24:41;;;;;;;1.00;0.90;;;15.00;99.90;;;;;;6054139;29;20291;-68
2021/07/06 02:27:47;;;;;;;1.40;0.60;;;15.00;99.90;;;;;;6054042;29;20714;-69
2021/07/06 02:30:50;;;;;;;2.60;0.70;;;15.00;99.90;;;;;;6054118;29;20658;-68
2021/07/06 02:33:52;;;;;;;0.80;0.70;;;14.90;99.90;;;;;;6054798;29;20214;-69
2021/07/06 02:36:54;;;;;;;1.57;0.70;;;14.90;99.90;;;;;;6046799;29;20205;-68
2021/07/06 02:39:56;;;;;;;0.97;0.73;;;14.90;99.90;;;;;;6054555;29;20223;-68
2021/07/06 02:43:00;;;;;;;0.97;0.70;;;14.90;99.90;;;;;;6054719;29;20328;-68
2021/07/06 02:46:02;;;;;;;0.70;0.70;;;14.80;99.90;;;;;;6053708;29;20280;-68
2021/07/06 02:49:04;;;;;;;1.13;0.70;;;14.70;99.90;;;;;;6053482;29;20954;-68
2021/07/06 02:52:06;;;;;;;1.93;1.00;;;14.70;99.90;;;;;;6054783;29;20212;-68
2021/07/06 02:55:10;;;;;;;0.90;0.60;;;14.70;99.90;;;;;;6053380;29;20220;-68
2021/07/06 02:58:14;;;;;;;0.97;0.70;;;14.70;99.90;;;;;;6054781;29;20197;-69
2021/07/06 03:01:17;;;;;;;0.50;0.50;;;14.70;99.90;;;;;;6057094;29;20305;-68
2021/07/06 03:04:19;;;;;;;4.20;0.90;;;14.70;99.90;;;;;;6067347;29;20197;-68
2021/07/06 03:07:21;;;;;;;0.87;0.60;;;14.70;99.90;;;;;;6038082;29;20771;-68
2021/07/06 03:10:30;;;;;;;0.70;0.70;;;14.60;99.90;;;;;;6052913;29;20620;-68
2021/07/06 03:13:33;;;;;;;0.70;0.70;;;14.60;99.90;;;;;;6053113;29;20213;-68
2021/07/06 03:16:35;;;;;;;0.80;0.60;;;14.50;99.90;;;;;;6052904;29;20205;-68
2021/07/06 03:19:37;;;;;;;2.93;0.60;;;14.50;99.90;;;;;;6054147;29;20779;-68
2021/07/06 03:22:40;;;;;;;1.27;0.50;;;14.40;99.90;;;;;;6053225;29;20193;-68
2021/07/06 03:25:43;;;;;;;0.70;0.60;;;14.40;99.90;;;;;;6052633;29;20194;-69
2021/07/06 03:28:46;;;;;;;0.60;0.60;;;14.50;99.90;;;;;;6053278;29;20215;-68
2021/07/06 03:31:48;;;;;;;0.70;0.70;;;14.50;99.90;;;;;;6060629;29;20229;-68
2021/07/06 03:34:51;;;;;;;1.70;0.80;;;14.40;99.90;;;;;;6070634;29;20579;-68
2021/07/06 03:37:54;;;;;;;0.70;0.60;;;14.40;99.90;;;;;;6054044;29;20673;-68
2021/07/06 03:40:57;;;;;;;0.67;0.67;;;14.30;99.90;;;;;;6053330;29;20722;-69
2021/07/06 03:43:59;;;;;;;4.00;0.70;;;14.30;99.90;;;;;;6052381;29;20316;-69
2021/07/06 03:47:03;;;;;;;0.93;0.70;;;14.30;99.90;;;;;;6053392;29;20197;-69
2021/07/06 03:50:09;;;;;;;0.60;0.60;;;14.20;99.90;;;;;;6053652;29;20618;-68
2021/07/06 03:53:11;;;;;;;0.70;0.70;;;14.20;99.90;;;;;;6053687;29;20249;-68
2021/07/06 03:56:13;;;;;;;0.73;0.73;;;14.30;99.90;;;;;;6056510;29;20299;-69
2021/07/06 03:59:15;;;;;;;0.93;0.80;;;14.30;99.90;;;;;;6053410;29;20260;-69
2021/07/06 04:02:17;;;;;;;0.80;0.70;;;14.30;99.90;;;;;;6042504;29;20220;-70
2021/07/06 04:05:21;;;;;;;0.60;0.60;;;14.30;99.90;;;;;;6052078;29;21560;-68
2021/07/06 04:08:23;;;;;;;0.70;0.70;;;14.30;99.90;;;;;;6053241;29;20617;-68
2021/07/06 04:11:25;;;;;;;0.80;0.80;;;14.30;99.90;;;;;;6030137;29;20197;-68
2021/07/06 04:14:27;;;;;;;0.70;0.53;;;14.40;99.90;;;;;;6050625;29;20722;-68
2021/07/06 04:17:29;;;;;;;3.90;0.90;;;14.40;99.90;;;;;;6052939;29;20676;-68
2021/07/06 04:20:33;;;;;;;0.97;0.50;;;14.40;99.90;;;;;;6053185;29;20635;-68
2021/07/06 04:23:37;;;;;;;0.60;0.60;;;14.50;99.90;;;;;;6051848;29;20198;-68
2021/07/06 04:26:39;;;;;;;0.50;0.50;;;14.50;99.90;;;;;;6053257;29;20193;-69
2021/07/06 04:29:41;;;;;;;0.93;0.60;;;14.50;99.90;;;;;;6053048;29;20196;-69
2021/07/06 04:32:44;;;;;;;2.03;0.80;;;14.60;99.90;;;;;;6066192;29;20200;-69
2021/07/06 04:35:47;;;;;;;0.63;0.50;;;14.70;99.90;;;;;;6056375;29;20597;-69
2021/07/06 04:38:49;;;;;;;0.77;0.60;;;14.70;99.90;;;;;;6056900;29;20292;-69
2021/07/06 04:41:51;;;;;;;0.63;0.60;;;14.70;99.90;;;;;;6055533;29;20225;-69
2021/07/06 04:44:53;;;;;;;0.70;0.70;;;14.70;99.90;;;;;;6057223;29;20227;-69
2021/07/06 04:47:55;;;;;;;2.03;0.60;;;14.80;99.90;;;;;;6055631;29;20201;-68
2021/07/06 04:51:04;;;;;;;1.77;0.60;;;14.80;99.90;;;;;;6057087;29;20216;-69
2021/07/06 04:54:07;;;;;;;0.70;0.70;;;14.90;99.90;;;;;;6056465;29;20205;-69
2021/07/06 04:57:09;;;;;;;0.83;0.70;;;14.90;99.90;;;;;;6056948;29;20194;-69
2021/07/06 05:00:13;;;;;;;0.77;0.77;;;14.90;99.90;;;;;;6056469;29;20206;-69
2021/07/06 05:03:15;;;;;;;0.80;0.67;;;15.00;99.90;;;;;;6075723;29;20199;-69
2021/07/06 05:06:19;;;;;;;0.70;0.70;;;15.10;99.90;;;;;;6066354;29;20210;-69
2021/07/06 05:09:21;;;;;;;0.60;0.60;;;15.10;99.90;;;;;;6070351;29;20197;-69
2021/07/06 05:12:23;;;;;;;0.87;0.70;;;15.10;99.90;;;;;;6056557;29;20208;-69
2021/07/06 05:15:26;;;;;;;0.60;0.60;;;15.20;99.90;;;;;;6055999;29;20205;-69
2021/07/06 05:18:28;;;;;;;1.83;0.70;;;15.20;99.90;;;;;;6055357;29;20336;-69
2021/07/06 05:21:30;;;;;;;0.60;0.60;;;15.30;99.90;;;;;;6056139;29;20300;-69
2021/07/06 05:24:42;;;;;;;0.77;0.63;;;15.40;99.90;;;;;;6056103;29;20197;-70
2021/07/06 05:27:45;;;;;;;0.50;0.50;;;15.50;99.90;;;;;;6056420;29;20280;-69
2021/07/06 05:30:48;;;;;;;0.63;0.63;;;15.50;99.90;;;;;;6056085;29;20194;-69
2021/07/06 05:33:50;;;;;;;2.10;0.60;;;15.50;99.90;;;;;;6056902;29;20209;-69
2021/07/06 05:36:53;;;;;;;0.70;0.70;;;15.60;99.90;;;;;;6062801;29;20202;-70
2021/07/06 05:39:55;;;;;;;1.70;0.63;;;15.70;99.90;;;;;;6055408;29;20630;-70
2021/07/06 05:42:58;;;;;;;1.73;1.00;;;15.70;99.90;;;;;;6055781;29;20276;-70
2021/07/06 05:46:00;;;;;;;1.97;0.93;;;15.80;99.90;;;;;;6054438;29;20539;-69
2021/07/06 05:49:03;;;;;;;1.60;0.77;;;15.80;99.90;;;;;;6055799;29;20189;-69
2021/07/06 05:52:05;;;;;;;1.53;0.87;;;15.90;99.90;;;;;;6055250;29;20193;-69
2021/07/06 05:55:09;;;;;;;0.70;0.70;;;15.90;99.90;;;;;;6054591;29;20284;-69
2021/07/06 05:58:12;;;;;;;3.27;1.00;;;16.10;99.90;;;;;;6055751;29;20284;-69
2021/07/06 06:01:15;;;;;;;0.60;0.60;;;16.10;99.90;;;;;;6041693;29;20225;-69
2021/07/06 06:04:18;;;;;;;0.70;0.70;;;16.20;99.90;;;;;;6075023;29;20722;-70
2021/07/06 06:07:21;;;;;;;0.60;0.60;;;16.30;99.90;;;;;;6054891;29;20558;-69
2021/07/06 06:10:24;;;;;;;0.60;0.60;;;16.40;99.90;;;;;;6055236;29;20300;-69
2021/07/06 06:13:26;;;;;;;1.10;0.73;;;16.50;99.90;;;;;;6055175;29;20303;-69
2021/07/06 06:16:28;;;;;;;1.07;0.60;;;16.60;99.90;;;;;;6053629;29;20194;-69
2021/07/06 06:19:31;;;;;;;0.93;0.73;;;16.70;99.90;;;;;;6055206;29;20200;-70
2021/07/06 06:22:33;;;;;;;1.43;0.90;;;16.80;99.90;;;;;;6053422;29;20224;-69
2021/07/06 06:25:42;;;;;;;0.97;0.80;;;16.90;99.90;;;;;;6054025;29;20179;-69
2021/07/06 06:28:45;;;;;;;0.80;0.80;;;17.00;99.90;;;;;;6053708;29;20349;-69
2021/07/06 06:31:47;;;;;;;1.20;0.70;;;17.20;99.90;;;;;;6062049;29;20756;-69
2021/07/06 06:34:51;;;;;;;1.37;0.90;;;17.40;99.90;;;;;;6063737;29;20203;-70
2021/07/06 06:37:53;;;;;;;1.10;0.77;;;17.50;99.90;;;;;;6057411;29;20197;-69
2021/07/06 06:40:55;;;;;;;1.23;0.83;;;17.70;99.90;;;;;;6054625;29;20205;-70
2021/07/06 06:43:59;;;;;;;0.70;0.70;;;18.00;99.90;;;;;;6068330;29;20382;-69
2021/07/06 06:47:02;;;;;;;1.27;0.70;;;18.30;99.90;;;;;;6055402;29;20193;-70
2021/07/06 06:50:06;;;;;;;1.10;1.00;;;18.50;99.90;;;;;;6053861;29;20294;-69
2021/07/06 06:53:08;;;;;;;0.60;0.60;;;18.90;99.90;;;;;;6054127;29;20665;-68
2021/07/06 06:56:10;;;;;;;1.07;1.00;;;19.20;99.90;;;;;;6054327;29;20598;-69
2021/07/06 06:59:13;;;;;;;1.77;0.93;;;19.50;99.90;;;;;;6052681;29;20201;-70
2021/07/06 07:02:17;;;;;;;1.30;1.00;;;19.80;99.90;;;;;;6063177;29;20213;-70
2021/07/06 07:05:19;;;;;;;1.93;1.00;;;20.10;99.90;;;;;;6063954;29;20334;-70
2021/07/06 07:08:22;;;;;;;2.70;0.70;;;20.50;99.90;;;;;;6052291;29;20651;-70
2021/07/06 07:11:24;;;;;;;1.60;1.10;;;20.90;99.90;;;;;;6052203;29;20557;-70
2021/07/06 07:14:26;;;;;;;1.43;1.13;;;21.20;99.90;;;;;;6052285;29;20220;-69
2021/07/06 07:17:28;;;;;;;1.30;1.20;;;21.50;99.90;;;;;;6052762;29;20209;-69
2021/07/06 07:20:30;;;;;;;2.50;1.50;;;21.90;99.90;;;;;;6053872;29;20221;-70
2021/07/06 07:23:33;;;;;;;1.83;1.00;;;22.20;99.90;;;;;;6052360;29;20201;-69
2021/07/06 07:26:35;;;;;;;4.40;1.97;;;22.50;99.90;;;;;;6052538;29;20746;-70
2021/07/06 07:29:38;;;;;;;1.67;1.57;;;22.90;99.90;;;;;;6052551;29;20559;-70
2021/07/06 07:32:41;;;;;;;2.20;1.50;;;23.30;99.40;;;;;;6057622;29;20201;-67
2021/07/06 07:35:44;;;;;;;2.33;1.67;;;23.70;98.20;;;;;;6052958;29;20674;-69
2021/07/06 07:38:47;;;;;;;1.63;1.53;;;24.10;97.30;;;;;;6053209;29;20201;-69
2021/07/06 07:41:49;;;;;;;2.33;1.80;;;24.50;96.10;;;;;;6053423;29;20227;-69
2021/07/06 07:44:51;;;;;;;2.13;1.77;;;24.90;92.60;;;;;;6053935;29;20352;-69
2021/07/06 07:47:53;;;;;;;3.87;2.00;;;25.20;90.70;;;;;;6053317;29;20671;-69
2021/07/06 07:50:56;;;;;;;5.40;2.00;;;25.60;89.70;;;;;;6052046;29;20284;-68
2021/07/06 07:53:58;;;;;;;3.00;1.60;;;26.00;86.70;;;;;;6053628;29;20211;-68
2021/07/06 07:57:01;;;;;;;2.60;1.63;;;26.30;83.10;;;;;;6053769;29;20204;-68
2021/07/06 08:00:04;;;;;;;3.47;1.50;;;26.70;83.30;;;;;;6053154;29;20194;-70
2021/07/06 08:03:17;;;;;;;1.70;1.60;;;27.10;80.60;;;;;;6064804;29;20707;-69
2021/07/06 08:06:19;;;;;;;2.67;1.77;;;27.50;78.60;;;;;;6051950;29;20255;-69
2021/07/06 08:09:22;;;;;;;2.92;1.95;;;27.80;76.90;;;;;;6055511;29;20221;-69
2021/07/06 08:12:24;;;;;;;3.25;2.20;;;28.10;76.70;;;;;;6058214;29;20358;-65
2021/07/06 08:15:26;;;;;;;3.50;2.00;;;28.30;74.90;;;;;;6059218;29;20288;-67
2021/07/06 08:18:29;;;;;;;1.92;1.63;;;28.50;72.50;;;;;;6058953;29;20205;-65
2021/07/06 08:21:31;;;;;;;2.40;1.90;;;28.70;73.00;;;;;;6058206;29;20312;-64
2021/07/06 08:24:33;;;;;;;2.67;1.80;;;28.80;72.00;;;;;;6058635;29;20305;-66
2021/07/06 08:27:36;;;;;;;2.78;2.42;;;29.00;72.50;;;;;;6057701;29;20272;-64
2021/07/06 08:30:39;;;;;;;2.83;2.30;;;29.10;66.10;;;;;;6057360;29;20329;-65
2021/07/06 08:33:42;;;;;;;3.10;2.30;;;29.10;64.30;;;;;;6079232;29;20221;-64
2021/07/06 08:36:44;;;;;;;4.13;2.33;;;29.20;66.70;;;;;;6057311;29;20197;-64
2021/07/06 08:39:46;;;;;;;2.30;2.10;;;29.60;65.00;;;;;;6058064;29;20201;-70
2021/07/06 08:42:49;;;;;;;4.70;2.33;;;29.90;65.50;;;;;;6056280;29;20604;-70
2021/07/06 08:45:52;;;;;;;3.63;2.22;;;30.10;61.30;;;;;;6056674;29;20216;-71
2021/07/06 08:48:59;;;;;;;3.40;2.50;;;30.30;60.70;;;;;;6056128;29;20208;-71
2021/07/06 08:52:03;;;;;;;2.47;1.95;;;30.30;59.40;;;;;;6055185;29;20213;-71
2021/07/06 08:55:06;;;;;;;2.60;2.38;;;30.40;58.90;;;;;;6056055;29;20205;-70
2021/07/06 08:58:08;;;;;;;3.17;2.30;;;30.40;57.90;;;;;;6056763;29;20688;-72
2021/07/06 09:01:13;;;;;;;2.72;2.40;;;30.50;58.60;;;;;;6057623;29;20249;-70
2021/07/06 09:04:15;;;;;;;4.25;2.28;;;30.80;59.40;;;;;;6054464;29;20198;-71
2021/07/06 09:07:19;;;;;;;2.30;2.10;;;30.80;56.40;;;;;;6056557;29;20825;-71
2021/07/06 09:10:26;;;;;;;3.60;2.55;;;31.00;55.70;;;;;;6056433;29;20202;-70
2021/07/06 09:13:31;;;;;;;2.40;2.20;;;31.30;55.50;;;;;;6054548;29;20742;-70
2021/07/06 09:16:33;;;;;;;3.30;2.00;;;31.60;54.40;;;;;;6054704;29;20208;-71
2021/07/06 09:19:36;;;;;;;3.05;2.33;;;31.80;53.50;;;;;;6054929;29;20737;-71
2021/07/06 09:22:39;;;;;;;4.60;2.75;;;32.10;54.00;;;;;;6057741;29;20220;-71
2021/07/06 09:25:41;;;;;;;3.58;2.50;;;32.10;52.30;;;;;;6055240;29;20203;-69
2021/07/06 09:28:47;;;;;;;2.30;2.10;;;32.20;53.50;;;;;;6056188;29;20189;-70
2021/07/06 09:31:51;;;;;;;2.20;2.00;;;32.50;53.50;;;;;;6063888;29;20209;-71
2021/07/06 09:34:53;;;;;;;9.02;2.55;;;32.80;53.40;;;;;;6056066;29;20201;-71
2021/07/06 09:38:01;;;;;;;3.45;2.40;;;32.90;52.60;;;;;;6057109;29;20222;-71
2021/07/06 09:41:18;;;;;;;5.78;2.28;;;32.80;51.40;;;;;;6056030;29;20561;-70
2021/07/06 09:44:34;;;;;;;3.80;2.25;;;32.50;50.60;;;;;;6055727;29;20229;-70
2021/07/06 09:47:37;;;;;;;2.70;2.25;;;32.50;50.40;;;;;;6071194;29;20205;-70
2021/07/06 09:50:39;;;;;;;3.20;2.28;;;33.00;51.00;;;;;;6056820;29;20243;-73
2021/07/06 09:53:44;;;;;;;4.05;2.65;;;33.60;51.70;;;;;;6055829;29;20194;-73
2021/07/06 09:56:46;;;;;;;5.53;2.10;;;34.20;49.20;;;;;;6054272;29;20217;-70
2021/07/06 10:00:27;;;;;;;6.28;2.53;;;34.50;48.10;;;;;;6055592;29;20663;-72
2021/07/06 10:03:32;;;;;;;2.35;2.15;;;34.50;49.90;;;;;;6029240;29;20266;-72
2021/07/06 10:06:34;;;;;;;2.35;2.08;;;34.60;49.00;;;;;;6029244;29;20221;-71
2021/07/06 10:09:37;;;;;;;3.67;2.03;;;34.90;48.60;;;;;;6029672;29;20203;-73
2021/07/06 10:12:41;;;;;;;2.63;1.98;;;35.20;49.20;;;;;;6028726;29;20717;-72
2021/07/06 10:15:46;;;;;;;2.40;2.20;;;35.30;45.50;;;;;;6029105;29;20191;-73
2021/07/06 10:18:49;;;;;;;2.33;1.80;;;35.50;47.10;;;;;;6029025;29;20213;-72
2021/07/06 10:21:52;;;;;;;1.60;1.50;;;35.60;42.90;;;;;;6028963;29;20228;-72
2021/07/06 10:24:54;;;;;;;2.20;1.35;;;35.00;41.70;;;;;;6028239;29;20661;-72
2021/07/06 10:28:00;;;;;;;1.40;1.30;;;35.00;43.40;;;;;;6028895;29;20290;-72
2021/07/06 10:31:15;;;;;;;1.65;1.55;;;35.10;42.70;;;;;;6027815;29;20239;-72
2021/07/06 10:34:26;;;;;;;1.45;1.35;;;35.30;41.80;;;;;;6028702;29;20201;-71
2021/07/06 10:37:29;;;;;;;1.73;1.50;;;35.60;42.20;;;;;;6030132;29;20253;-73
2021/07/06 10:40:42;;;;;;;1.05;0.95;;;36.10;41.40;;;;;;6030158;29;20552;-72
2021/07/06 10:43:45;;;;;;;1.77;1.08;;;35.80;39.80;;;;;;6052775;29;20267;-71
2021/07/06 10:46:49;;;;;;;2.05;1.50;;;35.70;39.90;;;;;;6038019;29;20236;-72
2021/07/06 10:49:51;;;;;;;1.20;1.20;;;35.60;39.50;;;;;;6054215;29;20190;-72
2021/07/06 10:53:29;;;;;;;1.85;1.20;;;35.30;40.30;;;;;;6054652;29;20198;-72
2021/07/06 10:56:33;;;;;;;1.40;1.30;;;35.60;40.00;;;;;;6012654;29;20206;-72
2021/07/06 10:59:36;;;;;;;2.03;1.30;;;35.70;39.80;;;;;;6028646;29;20233;-71
2021/07/06 11:02:39;;;;;;;2.28;1.30;;;36.00;40.20;;;;;;6021805;29;20386;-72
2021/07/06 11:05:42;;;;;;;1.48;1.38;;;36.00;38.80;;;;;;6023289;29;20213;-72
2021/07/06 11:08:44;;;;;;;2.80;1.30;;;36.20;39.50;;;;;;6005778;29;20632;-72
2021/07/06 11:11:46;;;;;;;2.20;1.35;;;36.40;39.80;;;;;;6005094;29;20207;-73
2021/07/06 11:14:54;;;;;;;1.20;1.20;;;36.20;40.10;;;;;;5990188;29;20651;-75
2021/07/06 11:18:02;;;;;;;3.03;1.35;;;35.90;39.70;;;;;;6005135;29;20222;-73
2021/07/06 11:21:31;;;;;;;2.45;1.30;;;35.50;39.20;;;;;;6005381;29;20714;-72
2021/07/06 11:24:40;;;;;;;3.03;1.60;;;35.50;39.90;;;;;;6005280;29;20209;-72
2021/07/06 11:27:56;;;;;;;1.48;1.38;;;35.60;39.60;;;;;;5990718;29;20494;-70
2021/07/06 11:31:01;;;;;;;1.52;1.42;;;35.80;39.50;;;;;;6046797;29;20296;-71
2021/07/06 11:34:04;;;;;;;2.67;1.48;;;35.80;39.00;;;;;;6064775;29;20553;-70
2021/07/06 11:37:16;;;;;;;3.08;1.38;;;36.30;39.00;;;;;;6052879;29;20258;-70
2021/07/06 11:40:18;;;;;;;2.13;1.30;;;36.90;38.50;;;;;;6053383;29;20227;-70
2021/07/06 11:43:22;;;;;;;3.88;1.52;;;36.90;38.20;;;;;;6049851;29;20603;-70
2021/07/06 11:46:26;;;;;;;1.48;1.23;;;37.10;40.50;;;;;;6056383;29;20194;-70
2021/07/06 11:49:28;;;;;;;2.00;1.45;;;37.10;38.20;;;;;;6057370;29;20201;-70
2021/07/06 11:52:30;;;;;;;3.25;1.40;;;37.20;38.00;;;;;;6056995;29;20589;-73
2021/07/06 11:55:34;;;;;;;1.45;1.35;;;37.20;37.10;;;;;;6057962;29;20353;-71
2021/07/06 11:58:37;;;;;;;1.25;1.15;;;36.60;37.10;;;;;;6058387;29;20211;-70
2021/07/06 12:01:40;;;;;;;2.10;1.50;;;36.50;38.60;;;;;;6063251;29;20212;-70
2021/07/06 12:04:42;;;;;;;2.33;1.35;;;36.90;38.50;;;;;;6070942;29;20201;-71
2021/07/06 12:07:45;;;;;;;1.40;1.30;;;37.50;37.20;;;;;;6056804;29;20205;-71
2021/07/06 12:11:14;;;;;;;2.88;1.20;;;37.80;37.30;;;;;;6057507;29;20216;-70
2021/07/06 12:14:20;;;;;;;1.65;1.38;;;37.50;36.70;;;;;;6058485;29;20189;-70
2021/07/06 12:17:30;;;;;;;1.92;1.20;;;37.60;36.70;;;;;;6057718;29;20886;-71
2021/07/06 12:20:32;;;;;;;2.75;1.13;;;37.60;36.30;;;;;;6058061;29;20560;-72
2021/07/06 12:23:46;;;;;;;1.73;1.17;;;37.50;36.40;;;;;;6057349;29;20563;-69
2021/07/06 12:26:56;;;;;;;2.10;1.30;;;37.30;36.30;;;;;;6057289;29;20810;-70
2021/07/06 12:30:03;;;;;;;1.60;1.45;;;37.50;37.20;;;;;;6057650;29;20193;-69
2021/07/06 12:33:09;;;;;;;2.33;1.27;;;37.80;36.10;;;;;;6055570;29;20349;-69
2021/07/06 12:36:12;;;;;;;2.05;1.20;;;37.60;36.70;;;;;;6056193;29;20673;-70
2021/07/06 12:39:27;;;;;;;3.03;1.15;;;37.20;35.70;;;;;;6055554;29;20212;-72
2021/07/06 12:42:34;;;;;;;1.58;1.10;;;37.30;36.00;;;;;;6056984;29;20236;-71
2021/07/06 12:45:37;;;;;;;2.15;1.38;;;37.60;36.90;;;;;;6056229;29;20202;-71
2021/07/06 12:48:45;;;;;;;2.55;1.30;;;38.00;36.10;;;;;;6056906;29;20242;-68
2021/07/06 12:52:00;;;;;;;2.60;1.27;;;37.80;34.80;;;;;;6055743;29;20194;-70
2021/07/06 12:55:30;;;;;;;1.45;1.20;;;37.90;36.20;;;;;;6054888;29;20209;-69
2021/07/06 12:58:33;;;;;;;1.23;1.10;;;38.40;35.20;;;;;;6056429;29;20266;-70
2021/07/06 13:01:35;;;;;;;1.45;1.35;;;38.20;35.20;;;;;;6062367;29;20209;-71
2021/07/06 13:04:57;;;;;;;1.73;1.00;;;37.60;34.70;;;;;;6061665;29;20208;-70
2021/07/06 13:07:59;;;;;;;2.10;1.30;;;37.60;35.80;;;;;;6056640;29;20198;-71
2021/07/06 13:11:13;;;;;;;1.23;1.10;;;37.80;35.90;;;;;;6055055;29;20194;-70
2021/07/06 13:14:19;;;;;;;1.90;1.30;;;38.30;34.90;;;;;;6056656;29;20202;-71
2021/07/06 13:17:23;;;;;;;1.70;1.00;;;38.80;35.90;;;;;;6054895;29;20292;-70
2021/07/06 13:20:27;;;;;;;1.08;0.98;;;39.10;34.80;;;;;;6055278;29;20541;-71
2021/07/06 13:23:29;;;;;;;1.27;1.02;;;39.50;33.80;;;;;;6054220;29;20749;-70
2021/07/06 13:26:31;;;;;;;1.20;1.10;;;40.00;34.00;;;;;;6054667;29;20189;-71
2021/07/06 13:29:33;;;;;;;1.08;1.00;;;40.30;32.90;;;;;;6056208;29;20270;-69
2021/07/06 13:32:42;;;;;;;1.33;1.23;;;40.70;33.00;;;;;;6069505;29;20208;-71
2021/07/06 13:35:47;;;;;;;1.95;1.25;;;40.60;33.10;;;;;;6059320;29;20193;-69
2021/07/06 13:38:50;;;;;;;1.23;1.00;;;40.40;32.60;;;;;;6054330;29;20284;-73
2021/07/06 13:41:52;;;;;;;1.35;1.25;;;40.40;32.10;;;;;;6055943;29;20197;-71
2021/07/06 13:44:54;;;;;;;1.35;1.20;;;40.00;32.00;;;;;;6054831;29;20618;-71
2021/07/06 13:47:57;;;;;;;2.08;1.30;;;39.50;32.80;;;;;;6055640;29;20194;-71
2021/07/06 13:51:00;;;;;;;1.48;1.10;;;39.80;32.90;;;;;;6055781;29;20200;-70
2021/07/06 13:54:06;;;;;;;2.30;1.27;;;39.80;32.50;;;;;;6054110;29;20206;-71
2021/07/06 13:57:12;;;;;;;1.42;1.33;;;40.00;33.00;;;;;;6055942;29;20201;-71
2021/07/06 14:00:14;;;;;;;1.45;1.30;;;40.80;32.40;;;;;;6069951;29;20254;-70
2021/07/06 14:03:20;;;;;;;3.50;1.30;;;41.40;31.70;;;;;;6056049;29;20695;-72
2021/07/06 14:06:25;;;;;;;1.60;1.50;;;41.80;32.10;;;;;;6054800;29;20458;-72
2021/07/06 14:09:31;;;;;;;1.70;1.60;;;42.30;31.10;;;;;;6054798;29;20686;-70
2021/07/06 14:12:33;;;;;;;2.95;1.30;;;42.20;30.80;;;;;;6055791;29;20200;-71
2021/07/06 14:15:36;;;;;;;2.45;1.48;;;42.40;30.80;;;;;;6055017;29;20224;-69
2021/07/06 14:18:38;;;;;;;1.90;1.65;;;42.30;30.60;;;;;;6054076;29;20198;-72
2021/07/06 14:21:41;;;;;;;3.95;1.65;;;42.50;30.30;;;;;;6055251;29;20248;-71
2021/07/06 14:24:43;;;;;;;4.50;1.83;;;42.50;30.00;;;;;;6054940;29;20232;-72
2021/07/06 14:27:45;;;;;;;1.88;1.65;;;42.70;30.10;;;;;;6055123;29;20644;-72
2021/07/06 14:31:01;;;;;;;1.67;1.50;;;42.80;29.90;;;;;;6055009;29;20261;-72
2021/07/06 14:34:06;;;;;;;2.13;1.92;;;43.10;30.00;;;;;;6061688;29;20562;-71
2021/07/06 14:37:17;;;;;;;2.20;2.00;;;43.00;29.80;;;;;;6054974;29;20483;-71
2021/07/06 14:40:19;;;;;;;3.00;2.10;;;43.00;29.70;;;;;;6054805;29;20636;-71
2021/07/06 14:43:22;;;;;;;1.63;1.52;;;43.30;29.50;;;;;;6054324;29;20312;-71
2021/07/06 14:46:24;;;;;;;2.28;1.75;;;43.50;29.30;;;;;;6054346;29;20194;-70
2021/07/06 14:49:27;;;;;;;2.30;2.10;;;43.80;29.10;;;;;;6053378;29;20269;-71
2021/07/06 14:52:31;;;;;;;4.10;2.20;;;43.90;29.00;;;;;;6054362;29;20234;-69
2021/07/06 14:55:33;;;;;;;3.03;2.80;;;44.10;29.40;;;;;;6054598;29;20198;-71
2021/07/06 14:58:35;;;;;;;3.30;3.00;;;44.10;29.00;;;;;;6054697;29;20209;-71
2021/07/06 15:01:38;;;;;;;3.22;2.80;;;43.70;29.40;;;;;;6058854;29;20208;-70
2021/07/06 15:04:40;;;;;;;3.40;2.88;;;43.50;29.20;;;;;;6078913;29;20217;-71
2021/07/06 15:07:42;;;;;;;2.60;2.40;;;43.30;29.20;;;;;;6052668;29;20197;-73
2021/07/06 15:10:44;;;;;;;5.22;2.78;;;43.50;29.50;;;;;;6053215;29;20214;-71
2021/07/06 15:13:47;;;;;;;2.90;2.40;;;43.90;29.50;;;;;;6052853;29;20197;-71
2021/07/06 15:16:49;;;;;;;2.90;2.40;;;43.70;29.30;;;;;;6053925;29;20204;-71
2021/07/06 15:19:51;;;;;;;3.75;2.60;;;43.10;29.60;;;;;;6031042;29;20262;-72
2021/07/06 15:22:55;;;;;;;2.88;2.60;;;43.10;29.70;;;;;;6050618;29;20228;-71
2021/07/06 15:25:58;;;;;;;2.95;2.75;;;43.20;29.60;;;;;;6054718;29;20583;-71
2021/07/06 15:29:02;;;;;;;3.22;2.95;;;43.50;29.50;;;;;;6053256;29;20546;-71
2021/07/06 15:32:09;;;;;;;4.50;3.35;;;43.20;29.60;;;;;;6063415;29;20388;-72
2021/07/06 15:35:32;;;;;;;3.08;2.78;;;43.20;29.80;;;;;;6077716;29;20567;-71
2021/07/06 15:38:35;;;;;;;3.85;3.30;;;43.00;29.70;;;;;;6053778;29;20277;-71
2021/07/06 15:41:39;;;;;;;3.50;3.20;;;43.00;30.00;;;;;;6052949;29;20278;-71
2021/07/06 15:44:42;;;;;;;3.75;3.45;;;43.40;30.00;;;;;;6052058;29;20378;-71
2021/07/06 15:47:44;;;;;;;4.38;3.33;;;43.40;29.80;;;;;;6053952;29;20190;-70
2021/07/06 15:50:46;;;;;;;5.03;3.63;;;43.40;30.00;;;;;;6053995;29;20197;-70
2021/07/06 15:53:50;;;;;;;5.80;3.80;;;43.80;29.90;;;;;;6053343;29;20205;-71
2021/07/06 15:56:54;;;;;;;4.80;4.28;;;44.20;29.80;;;;;;6052556;29;20204;-70
2021/07/06 15:59:56;;;;;;;4.53;3.70;;;44.20;29.80;;;;;;6052119;29;20212;-70